Bassett, Iowa
Current Conditions -  °F | °C
As of 10:15 PM on Sunday 23 Nov 2014 (Local Time) from KCCY Reporting Station
Overcast Overcast  
Wind Chill: 26°   Ceiling: 900
Heat Index: 37°   Visibility: 10mi
Dew Point: 36°   Wind: 23mph
Humidity: 93%   Direction: 320°NW
Pressure: 29.29"   Gusts: NA
Location:  43.0386°N, 92.4951°W
Report Text: KCCY 240415Z AUTO 32020KT 10SM OVC009 03/02 A2929 RMK AO2
Loading
Personal Weather Stations






























Interactive Weather Map New forecast layout! Learn more

10-Day Weather Forecast

Advertisements
Track Severe Weather on mobile